createdAt,value
2017-10-09T00:00:26.195Z,50.6
2017-10-09T00:05:31.920Z,50.6
2017-10-09T00:10:37.307Z,50.6
2017-10-09T00:15:42.703Z,50.6
2017-10-09T00:20:47.421Z,50.6
2017-10-09T00:25:52.857Z,50.6
2017-10-09T00:30:58.248Z,50.6
2017-10-09T00:36:03.302Z,50.6
2017-10-09T00:41:09.027Z,50.6
2017-10-09T00:46:13.746Z,50.6
2017-10-09T00:51:19.474Z,50.6
2017-10-09T00:56:24.863Z,50.6
2017-10-09T01:01:29.910Z,50.6
2017-10-09T01:06:35.634Z,50.5
2017-10-09T01:11:40.688Z,50.6
2017-10-09T01:16:45.740Z,50.5
2017-10-09T01:21:51.468Z,50.5
2017-10-09T01:26:56.527Z,50.5
2017-10-09T01:32:02.253Z,50.5
2017-10-09T01:37:07.646Z,50.5
2017-10-09T01:42:13.034Z,50.5
2017-10-09T01:47:17.753Z,50.4
2017-10-09T01:52:22.809Z,50.4
2017-10-09T01:57:27.864Z,50.4
2017-10-09T02:02:32.581Z,50.4
2017-10-09T02:07:38.303Z,50.4
2017-10-09T02:12:43.694Z,50.4
2017-10-09T02:17:48.748Z,50.4
2017-10-09T02:22:53.474Z,50.4
2017-10-09T02:27:58.538Z,50.3
2017-10-09T02:33:03.930Z,50.3
2017-10-09T02:38:08.651Z,50.2
2017-10-09T02:43:13.375Z,50.2
2017-10-09T02:48:18.428Z,50.2
2017-10-09T02:53:23.481Z,50.2
2017-10-09T02:58:28.869Z,50.2
2017-10-09T03:03:34.597Z,50.1
2017-10-09T03:08:39.653Z,50.1
2017-10-09T03:13:44.373Z,50.1
2017-10-09T03:18:49.764Z,50
2017-10-09T03:23:54.826Z,50
2017-10-09T03:29:00.554Z,50
2017-10-09T03:34:05.279Z,50
2017-10-09T03:39:09.999Z,50
2017-10-09T03:44:15.055Z,49.9
2017-10-09T03:49:20.111Z,50
2017-10-09T03:54:25.505Z,49.9
2017-10-09T03:59:30.224Z,49.7
2017-10-09T04:04:35.947Z,49.7
2017-10-09T04:09:41.336Z,49.6
2017-10-09T04:14:46.408Z,49.6
2017-10-09T04:19:51.805Z,49.5
2017-10-09T04:24:56.188Z,49.5
2017-10-09T04:30:01.242Z,49.5
2017-10-09T04:35:06.640Z,49.5
2017-10-09T04:40:11.724Z,49.5
2017-10-09T04:45:17.120Z,49.6
2017-10-09T04:50:22.516Z,49.5
2017-10-09T04:55:27.240Z,49.5
2017-10-09T05:00:31.975Z,49.5
2017-10-09T05:05:36.363Z,49.9
2017-10-09T05:10:41.422Z,50.5
2017-10-09T05:15:46.809Z,50.7
2017-10-09T05:20:52.538Z,50.6
2017-10-09T05:25:57.255Z,50.6
2017-10-09T05:31:02.645Z,50.7
2017-10-09T05:36:08.062Z,50.8
2017-10-09T05:41:13.117Z,51.2
2017-10-09T05:46:18.511Z,51.2
2017-10-09T05:51:23.565Z,42.4
2017-10-09T05:56:27.950Z,43.9
2017-10-09T06:01:33.675Z,43.8
2017-10-09T06:06:39.070Z,44
2017-10-09T06:11:44.464Z,44.2
2017-10-09T06:16:50.257Z,44.6
2017-10-09T06:21:55.646Z,44.9
2017-10-09T06:27:01.040Z,45.2
2017-10-09T06:32:05.756Z,45.6
2017-10-09T06:37:11.149Z,46.3
2017-10-09T06:42:16.549Z,47.1
2017-10-09T06:47:20.937Z,47.5
2017-10-09T06:52:25.997Z,47.7
2017-10-09T06:57:30.717Z,47.7
2017-10-09T07:02:36.779Z,47.7
2017-10-09T07:07:41.499Z,47.7
2017-10-09T07:12:47.224Z,47.7
2017-10-09T07:17:52.281Z,47.7
2017-10-09T07:22:57.674Z,47.6
2017-10-09T07:28:02.731Z,47.6
2017-10-09T07:33:07.792Z,47.5
2017-10-09T07:38:12.509Z,47.4
2017-10-09T07:43:17.563Z,47.5
2017-10-09T07:48:23.292Z,47.5
2017-10-09T07:53:28.016Z,47.5
2017-10-09T07:58:33.073Z,47.5
2017-10-09T08:03:37.462Z,47.6
2017-10-09T08:08:42.862Z,47.6
2017-10-09T08:13:47.586Z,47.6
2017-10-09T08:18:52.307Z,47.6
2017-10-09T08:23:58.035Z,47.6
2017-10-09T08:29:03.141Z,47.6
2017-10-09T08:34:07.533Z,47.7
2017-10-09T08:39:11.927Z,47.7
2017-10-09T08:44:15.979Z,47.8
2017-10-09T08:49:20.701Z,47.9
2017-10-09T08:54:25.761Z,48
2017-10-09T08:59:31.493Z,48
2017-10-09T09:04:36.885Z,48
2017-10-09T09:09:42.280Z,48
2017-10-09T09:14:46.665Z,48
2017-10-09T09:19:52.057Z,47.9
2017-10-09T09:24:57.449Z,47.9
2017-10-09T09:30:02.841Z,47.9
2017-10-09T09:35:07.567Z,47.9
2017-10-09T09:40:13.295Z,47.9
2017-10-09T09:45:18.690Z,47.9
2017-10-09T09:50:23.748Z,48
2017-10-09T09:55:28.470Z,48
2017-10-09T10:00:33.533Z,48
2017-10-09T10:05:37.592Z,48.1
2017-10-09T10:10:42.320Z,48
2017-10-09T10:15:47.380Z,48
2017-10-09T10:20:52.261Z,48.3
2017-10-09T10:25:56.985Z,48.3
2017-10-09T10:31:02.387Z,48.2
2017-10-09T10:36:08.115Z,48.2
2017-10-09T10:41:13.171Z,48.1
2017-10-09T10:46:18.817Z,48
2017-10-09T10:51:23.872Z,47.9
2017-10-09T10:56:28.933Z,47.8
2017-10-09T11:01:34.322Z,47.7
2017-10-09T11:06:39.719Z,47.8
2017-10-09T11:11:45.449Z,48
2017-10-09T11:16:50.846Z,48.1
2017-10-09T11:21:56.576Z,48.1
2017-10-09T11:27:01.973Z,48.1
2017-10-09T11:32:06.365Z,48.1
2017-10-09T11:37:11.429Z,48
2017-10-09T11:42:16.826Z,47.9
2017-10-09T11:47:21.551Z,47.9
2017-10-09T11:52:27.294Z,48
2017-10-09T11:57:31.681Z,48.1
2017-10-09T12:02:36.745Z,48.1
2017-10-09T12:07:41.803Z,48.2
2017-10-09T12:12:47.203Z,48.3
2017-10-09T12:17:51.927Z,48.4
2017-10-09T12:22:57.328Z,48.4
2017-10-09T12:28:02.054Z,48.4
2017-10-09T12:33:06.778Z,48.5
2017-10-09T12:38:12.177Z,48.5
2017-10-09T12:43:17.237Z,48.6
2017-10-09T12:48:21.962Z,48.6
2017-10-09T12:53:26.695Z,48.7
2017-10-09T12:58:31.429Z,48.7
2017-10-09T13:03:36.494Z,48.8
2017-10-09T13:08:41.564Z,49
2017-10-09T13:13:46.980Z,49.1
2017-10-09T13:18:52.039Z,49.3
2017-10-09T13:23:57.778Z,49.4
2017-10-09T13:29:02.847Z,49.5
2017-10-09T13:34:08.243Z,49.7
2017-10-09T13:39:13.977Z,49.8
2017-10-09T13:44:18.706Z,49.8
2017-10-09T13:49:23.775Z,49.9
2017-10-09T13:54:28.834Z,49.9
2017-10-09T13:59:33.228Z,49.9
2017-10-09T14:04:38.286Z,49.9
2017-10-09T14:09:43.347Z,50
2017-10-09T14:14:48.419Z,50.1
2017-10-09T14:19:54.156Z,50.1
2017-10-09T14:25:00.218Z,50.1
2017-10-09T14:30:04.713Z,50.1
2017-10-09T14:40:15.273Z,50.2
2017-10-09T14:45:20.932Z,50.4
2017-10-09T14:50:26.029Z,50.4
2017-10-09T14:55:31.185Z,50.6
2017-10-09T15:00:37.213Z,50.6
2017-10-09T15:05:42.710Z,50.7
2017-10-09T15:10:47.489Z,50.7
2017-10-09T15:15:52.747Z,50.7
2017-10-09T15:20:58.634Z,50.7
2017-10-09T15:26:03.743Z,50.7
2017-10-09T15:31:09.970Z,50.7
2017-10-09T15:36:15.089Z,50.7
2017-10-09T15:41:20.857Z,50.7
2017-10-09T15:46:25.613Z,50.7
2017-10-09T15:51:31.042Z,50.8
2017-10-09T15:56:36.127Z,50.8
2017-10-09T16:01:42.244Z,50.8
2017-10-09T16:06:47.681Z,50.8
2017-10-09T16:11:52.776Z,50.8
2017-10-09T16:16:57.860Z,50.8
2017-10-09T16:22:03.289Z,50.8
2017-10-09T16:27:08.718Z,50.8
2017-10-09T16:32:13.467Z,50.8
2017-10-09T16:37:19.250Z,50.8
2017-10-09T16:42:24.007Z,50.9
2017-10-09T16:47:29.778Z,50.9
2017-10-09T16:52:34.858Z,50.9
2017-10-09T16:57:39.253Z,50.9
2017-10-09T17:02:45.033Z,50.9
2017-10-09T17:07:50.473Z,50.9
2017-10-09T17:12:54.870Z,50.9
2017-10-09T17:17:59.623Z,51.1
2017-10-09T17:23:04.022Z,51.8
2017-10-09T17:28:09.105Z,52.3
2017-10-09T17:33:14.533Z,52.5
2017-10-09T17:38:19.962Z,52.6
2017-10-09T17:43:25.047Z,52.7
2017-10-09T17:48:30.132Z,52.7
2017-10-09T17:53:35.568Z,52.7
2017-10-09T17:58:40.515Z,52.7
2017-10-09T18:03:45.945Z,52.8
2017-10-09T18:08:51.722Z,53
2017-10-09T18:13:56.809Z,53.2
2017-10-09T18:19:02.236Z,53.3
2017-10-09T18:24:06.979Z,53.1
2017-10-09T18:29:13.096Z,52.7
2017-10-09T18:34:18.879Z,52.5
2017-10-09T18:39:23.965Z,52.4
2017-10-09T18:44:28.381Z,52.4
2017-10-09T18:49:34.159Z,52.6
2017-10-09T18:54:38.902Z,53.3
2017-10-09T18:59:43.646Z,53.8
2017-10-09T19:04:48.754Z,54.1
2017-10-09T19:09:53.844Z,54.4
2017-10-09T19:14:59.622Z,54.6
2017-10-09T19:20:05.410Z,54.6
2017-10-09T19:25:10.837Z,54.5
2017-10-09T19:30:16.670Z,54.5
2017-10-09T19:35:22.109Z,54.2
2017-10-09T19:40:26.514Z,54.3
2017-10-09T19:45:31.951Z,54.9
2017-10-09T19:50:36.719Z,55.5
2017-10-09T19:55:42.173Z,55.7
2017-10-09T20:00:46.590Z,55.6
2017-10-09T20:05:51.697Z,55.6
2017-10-09T20:10:56.920Z,55.5
2017-10-09T20:16:02.016Z,55.5
2017-10-09T20:21:06.439Z,55.2
2017-10-09T20:26:12.236Z,55.3
2017-10-09T20:31:17.329Z,55.3
2017-10-09T20:36:22.751Z,55.3
2017-10-09T20:41:28.201Z,55.4
2017-10-09T20:46:33.290Z,55.3
2017-10-09T20:51:39.423Z,55.4
2017-10-09T20:56:44.509Z,55.4
2017-10-09T21:01:49.252Z,55.4
2017-10-09T21:06:54.686Z,55.4
2017-10-09T21:12:00.817Z,55.4
2017-10-09T21:17:06.460Z,55.5
2017-10-09T21:22:12.237Z,55.5
2017-10-09T21:27:17.679Z,55.5
2017-10-09T21:32:22.767Z,55.4
2017-10-09T21:37:26.835Z,55.4
2017-10-09T21:42:32.310Z,55.4
2017-10-09T21:47:36.713Z,55.3
2017-10-09T21:52:41.200Z,55.3
2017-10-09T21:57:47.316Z,55.3
2017-10-09T22:02:52.511Z,55.2
2017-10-09T22:07:57.940Z,55.2
2017-10-09T22:13:03.372Z,55.2
2017-10-09T22:18:09.172Z,55.1
2017-10-09T22:23:14.945Z,55
2017-10-09T22:28:20.724Z,55
2017-10-09T22:33:25.118Z,54.9
2017-10-09T22:38:30.562Z,54.9
2017-10-09T22:43:35.727Z,54.8
2017-10-09T22:48:40.813Z,54.8
2017-10-09T22:53:46.249Z,54.7
2017-10-09T22:58:51.695Z,54.7
2017-10-09T23:03:56.778Z,54.7
2017-10-09T23:09:02.206Z,54.6
2017-10-09T23:14:07.296Z,54.6
2017-10-09T23:19:12.395Z,54.5
2017-10-09T23:24:17.823Z,54.5
2017-10-09T23:29:22.223Z,54.5
2017-10-09T23:34:27.656Z,54.4
2017-10-09T23:39:32.743Z,54.4
2017-10-09T23:44:38.178Z,54.4
2017-10-09T23:49:43.605Z,54.4
2017-10-09T23:54:49.051Z,54.4
2017-10-09T23:59:53.834Z,54.4
